Time;durP1;ratioP1;P1;durP2;ratioP2;P2;SDS_P1;SDS_P2;PMS_P1;PMS_P2;Temp;Humidity;BMP_temperature;BMP_pressure;BME280_temperature;BME280_humidity;BME280_pressure;Samples;Min_cycle;Max_cycle;Signal;HPM_P1;HPM_P2
2022/06/24 00:00:12;;;;;;;16.35;11.38;;;;;;;;;;5109623;28;20020;-72
2022/06/24 00:03:35;;;;;;;15.38;11.35;;;;;;;;;;5071321;28;20383;-71
2022/06/24 00:06:01;;;;;;;14.88;10.85;;;;;;;;;;5070699;28;20112;-72
2022/06/24 00:08:27;;;;;;;13.82;9.38;;;;;;;;;;5070238;28;20024;-72
2022/06/24 00:12:08;;;;;;;15.20;10.40;;;;;;;;;;5112032;27;20404;-72
2022/06/24 00:14:35;;;;;;;12.15;9.10;;;;;;;;;;5111108;28;20024;-72
2022/06/24 00:17:03;;;;;;;13.38;9.57;;;;;;;;;;5111038;28;20520;-72
2022/06/24 00:20:17;;;;;;;14.15;10.05;;;;;;;;;;5111290;27;20392;-72
2022/06/24 00:22:45;;;;;;;14.98;9.70;;;;;;;;;;5111027;28;20027;-72
2022/06/24 00:27:18;;;;;;;17.83;11.48;;;;;;;;;;5111956;27;20758;-72
2022/06/24 00:29:44;;;;;;;12.63;9.55;;;;;;;;;;5110873;28;20108;-73
2022/06/24 00:32:10;;;;;;;14.23;10.05;;;;;;;;;;5111163;28;20019;-72
2022/06/24 00:38:50;;;;;;;14.15;10.98;;;;;;;;;;5111743;27;20396;-72
2022/06/24 00:43:04;;;;;;;13.75;8.98;;;;;;;;;;5111304;27;20458;-72
2022/06/24 00:45:34;;;;;;;14.80;9.00;;;;;;;;;;5111649;28;20457;-72
2022/06/24 00:50:45;;;;;;;13.23;9.65;;;;;;;;;;5111235;27;20470;-73
2022/06/24 00:53:11;;;;;;;12.73;8.88;;;;;;;;;;5111151;28;20480;-72
2022/06/24 00:56:54;;;;;;;13.85;9.52;;;;;;;;;;5070967;28;20907;-72
2022/06/24 00:59:20;;;;;;;14.68;9.48;;;;;;;;;;5070639;28;20029;-72
2022/06/24 01:03:14;;;;;;;14.32;10.00;;;;;;;;;;5111975;27;20470;-72
2022/06/24 01:05:41;;;;;;;12.10;9.48;;;;;;;;;;5109519;28;20020;-72
2022/06/24 01:12:38;;;;;;;12.85;8.88;;;;;;;;;;5111027;27;20389;-72
2022/06/24 01:17:20;;;;;;;14.35;10.02;;;;;;;;;;5111256;27;20393;-72
2022/06/24 01:19:46;;;;;;;13.88;10.27;;;;;;;;;;5110777;28;20047;-72
2022/06/24 01:22:12;;;;;;;14.00;9.95;;;;;;;;;;5111314;28;20024;-72
2022/06/24 01:24:58;;;;;;;12.93;9.20;;;;;;;;;;5111444;27;20393;-72
2022/06/24 01:27:24;;;;;;;13.65;10.48;;;;;;;;;;5111723;28;20476;-72
2022/06/24 01:29:50;;;;;;;15.93;10.30;;;;;;;;;;5111177;28;20024;-72
2022/06/24 01:35:33;;;;;;;15.73;10.73;;;;;;;;;;5111669;27;20737;-72
2022/06/24 01:39:42;;;;;;;12.65;9.23;;;;;;;;;;5111301;27;21147;-72
2022/06/24 01:42:08;;;;;;;14.35;10.45;;;;;;;;;;5111245;28;20118;-72
2022/06/24 01:44:35;;;;;;;15.07;9.77;;;;;;;;;;5111152;28;20043;-72
2022/06/24 01:48:11;;;;;;;15.20;10.70;;;;;;;;;;5111304;27;20388;-73
2022/06/24 01:51:55;;;;;;;14.05;10.48;;;;;;;;;;5111706;27;20385;-72
2022/06/24 01:54:21;;;;;;;14.38;10.30;;;;;;;;;;5110941;28;20031;-72
2022/06/24 01:56:47;;;;;;;14.82;10.63;;;;;;;;;;5111443;28;20024;-72
2022/06/24 01:59:14;;;;;;;17.00;11.52;;;;;;;;;;5111086;28;20054;-72
2022/06/24 02:01:41;;;;;;;13.93;10.02;;;;;;;;;;5110700;28;20535;-72
2022/06/24 02:05:52;;;;;;;14.27;9.60;;;;;;;;;;5112043;27;20389;-72
2022/06/24 02:09:07;;;;;;;11.63;9.55;;;;;;;;;;5110871;27;20397;-72
2022/06/24 02:16:42;;;;;;;14.05;9.77;;;;;;;;;;5111512;27;20393;-72
2022/06/24 02:19:08;;;;;;;14.45;10.50;;;;;;;;;;5111364;28;20020;-72
2022/06/24 02:24:33;;;;;;;12.48;9.07;;;;;;;;;;5111732;27;20388;-72
2022/06/24 02:26:59;;;;;;;16.45;11.60;;;;;;;;;;5111535;28;20027;-72
2022/06/24 02:29:25;;;;;;;13.23;9.25;;;;;;;;;;5110693;28;20023;-72
2022/06/24 02:31:52;;;;;;;12.63;8.98;;;;;;;;;;5111266;28;20069;-73
2022/06/24 02:36:18;;;;;;;14.82;10.50;;;;;;;;;;5111016;27;20570;-73
2022/06/24 02:38:44;;;;;;;13.23;10.27;;;;;;;;;;5111265;28;20028;-72
2022/06/24 02:49:30;;;;;;;14.63;9.23;;;;;;;;;;5110932;27;20392;-72
2022/06/24 02:51:56;;;;;;;14.30;10.40;;;;;;;;;;5111171;28;20030;-72
2022/06/24 02:54:22;;;;;;;13.93;9.38;;;;;;;;;;5111113;28;20027;-72
2022/06/24 02:57:47;;;;;;;12.93;8.35;;;;;;;;;;5110938;27;20404;-72
2022/06/24 03:00:13;;;;;;;13.60;9.80;;;;;;;;;;5111236;28;20504;-72
2022/06/24 03:03:43;;;;;;;13.55;9.38;;;;;;;;;;5111359;27;20911;-72
2022/06/24 03:06:09;;;;;;;15.88;10.45;;;;;;;;;;5111288;28;20066;-72
2022/06/24 03:08:36;;;;;;;13.95;9.38;;;;;;;;;;5111232;28;20026;-72
2022/06/24 03:12:50;;;;;;;14.77;10.20;;;;;;;;;;5111764;27;20721;-73
2022/06/24 03:15:17;;;;;;;13.82;9.60;;;;;;;;;;5111275;28;20024;-73
2022/06/24 03:17:43;;;;;;;13.32;8.90;;;;;;;;;;5110698;28;20527;-73
2022/06/24 03:21:10;;;;;;;13.02;9.55;;;;;;;;;;5112066;27;20388;-72
2022/06/24 03:23:36;;;;;;;14.02;9.48;;;;;;;;;;5111339;28;20132;-72
2022/06/24 03:28:38;;;;;;;12.88;9.80;;;;;;;;;;5111517;27;20454;-73
2022/06/24 03:31:05;;;;;;;13.95;9.30;;;;;;;;;;5111160;28;20026;-73
2022/06/24 03:33:31;;;;;;;13.55;9.68;;;;;;;;;;5110714;28;20065;-73
2022/06/24 03:35:57;;;;;;;12.85;9.35;;;;;;;;;;5111334;28;20527;-73
2022/06/24 03:38:23;;;;;;;12.48;9.45;;;;;;;;;;5110855;28;20487;-73
2022/06/24 03:40:50;;;;;;;12.73;9.05;;;;;;;;;;5110993;28;20111;-73
2022/06/24 03:44:08;;;;;;;11.77;8.00;;;;;;;;;;5111488;27;20418;-72
2022/06/24 03:48:21;;;;;;;11.73;7.85;;;;;;;;;;5111368;27;20422;-73
2022/06/24 03:50:47;;;;;;;15.65;10.07;;;;;;;;;;5111155;28;20531;-72
2022/06/24 03:54:43;;;;;;;13.68;8.23;;;;;;;;;;5111165;27;20422;-72
2022/06/24 03:57:19;;;;;;;13.68;9.45;;;;;;;;;;5111941;27;20388;-72
2022/06/24 04:01:27;;;;;;;13.38;9.27;;;;;;;;;;5110947;27;20397;-72
2022/06/24 04:03:53;;;;;;;14.18;9.32;;;;;;;;;;5111279;28;20020;-72
2022/06/24 04:06:20;;;;;;;11.57;8.15;;;;;;;;;;5111220;28;20016;-72
2022/06/24 04:08:46;;;;;;;11.98;8.43;;;;;;;;;;5110720;28;20419;-72
2022/06/24 04:11:13;;;;;;;12.32;7.53;;;;;;;;;;5111070;28;20524;-72
2022/06/24 04:17:23;;;;;;;10.75;8.13;;;;;;;;;;5111345;28;20442;-72
2022/06/24 04:19:52;;;;;;;12.18;8.25;;;;;;;;;;5111159;28;20081;-72
2022/06/24 04:26:43;;;;;;;10.93;7.82;;;;;;;;;;5111406;27;20392;-72
2022/06/24 04:29:09;;;;;;;10.90;7.50;;;;;;;;;;5110920;28;20023;-72
2022/06/24 04:34:20;;;;;;;12.88;8.60;;;;;;;;;;5111545;27;20109;-72
2022/06/24 04:36:46;;;;;;;12.63;8.05;;;;;;;;;;5110722;28;20024;-72
2022/06/24 04:41:16;;;;;;;11.80;7.38;;;;;;;;;;5111520;27;20908;-72
2022/06/24 04:43:43;;;;;;;13.90;7.65;;;;;;;;;;5111041;28;20050;-68
2022/06/24 04:47:37;;;;;;;11.00;7.35;;;;;;;;;;5111471;27;20388;-68
2022/06/24 04:50:03;;;;;;;10.88;7.68;;;;;;;;;;5111016;28;20020;-68
2022/06/24 04:52:29;;;;;;;10.75;8.32;;;;;;;;;;5111553;28;20028;-68
2022/06/24 04:54:55;;;;;;;11.57;8.98;;;;;;;;;;5111595;28;20095;-68
2022/06/24 04:57:21;;;;;;;12.52;8.07;;;;;;;;;;5110727;28;20484;-68
2022/06/24 04:59:48;;;;;;;11.60;7.82;;;;;;;;;;5110995;28;20102;-68
2022/06/24 05:02:14;;;;;;;12.52;8.02;;;;;;;;;;5111107;28;20028;-68
2022/06/24 05:06:40;;;;;;;11.73;8.60;;;;;;;;;;5111626;27;20418;-69
2022/06/24 05:09:06;;;;;;;14.25;8.75;;;;;;;;;;5110887;28;20539;-67
2022/06/24 05:11:34;;;;;;;12.70;8.95;;;;;;;;;;5109257;28;20491;-67
2022/06/24 05:14:00;;;;;;;12.93;8.88;;;;;;;;;;5127019;28;20020;-67
2022/06/24 05:16:26;;;;;;;11.65;8.20;;;;;;;;;;5111056;28;20012;-68
2022/06/24 05:20:13;;;;;;;13.13;8.77;;;;;;;;;;5111355;27;20393;-67
2022/06/24 05:22:39;;;;;;;13.32;10.43;;;;;;;;;;5107931;28;21953;-68
2022/06/24 05:26:06;;;;;;;14.75;9.80;;;;;;;;;;5121773;27;20577;-68
2022/06/24 05:28:34;;;;;;;13.23;9.75;;;;;;;;;;5110967;28;20034;-68
2022/06/24 05:32:52;;;;;;;11.90;7.80;;;;;;;;;;5110842;27;20462;-68
2022/06/24 05:38:09;;;;;;;12.07;8.40;;;;;;;;;;5107538;27;20497;-68
2022/06/24 05:40:35;;;;;;;20.60;9.15;;;;;;;;;;5111233;28;20032;-67
2022/06/24 05:43:01;;;;;;;11.45;7.85;;;;;;;;;;5110940;28;20077;-66
2022/06/24 05:45:28;;;;;;;11.18;7.97;;;;;;;;;;5110719;28;20020;-66
2022/06/24 05:47:54;;;;;;;13.25;8.15;;;;;;;;;;5105442;28;20030;-68
2022/06/24 05:50:20;;;;;;;11.90;8.15;;;;;;;;;;5108845;28;20059;-68
2022/06/24 05:56:03;;;;;;;15.73;8.85;;;;;;;;;;5115804;27;21005;-68
2022/06/24 06:09:34;;;;;;;13.30;8.90;;;;;;;;;;5108133;27;20953;-69
2022/06/24 06:12:00;;;;;;;11.00;7.72;;;;;;;;;;5107216;28;20024;-68
2022/06/24 06:14:27;;;;;;;11.52;8.40;;;;;;;;;;5103290;28;20439;-66
2022/06/24 06:16:53;;;;;;;11.98;7.18;;;;;;;;;;5097648;28;20047;-68
2022/06/24 06:19:19;;;;;;;11.57;7.88;;;;;;;;;;5097571;28;20103;-66
2022/06/24 06:21:45;;;;;;;10.50;7.55;;;;;;;;;;5104741;28;20069;-67
2022/06/24 06:24:11;;;;;;;12.45;8.40;;;;;;;;;;5103221;28;20012;-67
2022/06/24 06:26:37;;;;;;;12.93;8.63;;;;;;;;;;5104539;28;20035;-67
2022/06/24 06:29:04;;;;;;;15.18;9.70;;;;;;;;;;5083115;28;20024;-67
2022/06/24 06:31:30;;;;;;;12.55;8.45;;;;;;;;;;5100045;28;20028;-67
2022/06/24 06:37:16;;;;;;;12.38;8.52;;;;;;;;;;5114699;27;20517;-66
2022/06/24 06:41:24;;;;;;;11.85;8.63;;;;;;;;;;5098994;27;20430;-67
2022/06/24 06:45:06;;;;;;;12.90;8.13;;;;;;;;;;5107518;27;20388;-68
2022/06/24 06:47:32;;;;;;;11.68;8.25;;;;;;;;;;5106910;28;20031;-68
2022/06/24 06:52:05;;;;;;;10.90;7.60;;;;;;;;;;5104196;27;20471;-68
2022/06/24 06:54:31;;;;;;;13.85;8.52;;;;;;;;;;5092460;28;20015;-70
2022/06/24 06:58:23;;;;;;;13.60;8.98;;;;;;;;;;5101148;27;20442;-68
2022/06/24 07:02:10;;;;;;;13.55;8.32;;;;;;;;;;5108003;27;20408;-67
2022/06/24 07:04:36;;;;;;;13.43;8.43;;;;;;;;;;5109586;28;20107;-67
2022/06/24 07:07:02;;;;;;;12.80;8.63;;;;;;;;;;5109682;28;20047;-67
2022/06/24 07:09:28;;;;;;;11.77;8.10;;;;;;;;;;5109743;28;20031;-69
2022/06/24 07:11:54;;;;;;;10.13;7.53;;;;;;;;;;5106662;28;20107;-70
2022/06/24 07:14:59;;;;;;;10.70;7.57;;;;;;;;;;5109825;27;20393;-67
2022/06/24 07:19:29;;;;;;;13.73;8.93;;;;;;;;;;5109081;27;20809;-67
2022/06/24 07:21:55;;;;;;;12.98;9.15;;;;;;;;;;5108918;28;20038;-67
2022/06/24 07:24:22;;;;;;;10.98;8.23;;;;;;;;;;5088167;28;20465;-67
2022/06/24 07:26:48;;;;;;;12.25;9.15;;;;;;;;;;5089230;28;20040;-67
2022/06/24 07:29:14;;;;;;;13.43;9.65;;;;;;;;;;5088382;28;20024;-68
2022/06/24 07:31:40;;;;;;;13.27;10.10;;;;;;;;;;5088893;28;20032;-69
2022/06/24 07:34:06;;;;;;;13.38;9.45;;;;;;;;;;5076190;28;20028;-69
2022/06/24 07:36:32;;;;;;;13.93;9.55;;;;;;;;;;5071426;28;20013;-69
2022/06/24 07:40:42;;;;;;;16.25;9.45;;;;;;;;;;5100850;27;20402;-69
2022/06/24 07:43:08;;;;;;;13.25;9.60;;;;;;;;;;5088449;28;20021;-68
2022/06/24 07:46:20;;;;;;;13.60;8.93;;;;;;;;;;5109160;27;20422;-68
2022/06/24 07:48:46;;;;;;;13.68;9.50;;;;;;;;;;5098318;28;20028;-68
2022/06/24 07:51:13;;;;;;;14.20;9.55;;;;;;;;;;5110280;28;20371;-69
2022/06/24 07:53:40;;;;;;;13.25;9.95;;;;;;;;;;5109249;28;20020;-69
2022/06/24 07:59:15;;;;;;;13.45;9.60;;;;;;;;;;5103654;28;20304;-67
2022/06/24 08:03:33;;;;;;;12.95;8.40;;;;;;;;;;5109641;27;20422;-67
2022/06/24 08:05:59;;;;;;;14.30;9.68;;;;;;;;;;5109695;28;20110;-70
2022/06/24 08:08:25;;;;;;;15.20;10.80;;;;;;;;;;5106787;28;20023;-69
2022/06/24 08:12:57;;;;;;;10.80;7.68;;;;;;;;;;5050074;28;21049;-69
2022/06/24 08:15:23;;;;;;;11.32;7.80;;;;;;;;;;5044589;28;20064;-69
2022/06/24 08:20:35;;;;;;;12.90;9.75;;;;;;;;;;5088567;28;20122;-68
2022/06/24 08:24:40;;;;;;;14.10;9.38;;;;;;;;;;5109453;27;20455;-69
2022/06/24 08:27:07;;;;;;;10.77;8.52;;;;;;;;;;5107936;28;20078;-68
2022/06/24 08:29:33;;;;;;;12.77;9.75;;;;;;;;;;5102101;28;20024;-69
2022/06/24 08:31:59;;;;;;;14.20;9.30;;;;;;;;;;5105371;28;20070;-69
2022/06/24 08:34:57;;;;;;;12.60;9.35;;;;;;;;;;5109730;27;20388;-68
2022/06/24 08:37:23;;;;;;;12.25;8.73;;;;;;;;;;5087749;28;20036;-67
2022/06/24 08:39:49;;;;;;;12.38;9.88;;;;;;;;;;5088535;28;20032;-69
2022/06/24 08:42:16;;;;;;;12.63;7.97;;;;;;;;;;5087515;28;20024;-67
2022/06/24 08:44:42;;;;;;;10.40;7.47;;;;;;;;;;5078573;28;20027;-68
2022/06/24 08:47:14;;;;;;;10.43;8.15;;;;;;;;;;5083173;28;20368;-68
2022/06/24 08:49:40;;;;;;;10.98;8.75;;;;;;;;;;5088416;28;20108;-68
2022/06/24 08:52:10;;;;;;;11.80;8.60;;;;;;;;;;5082468;28;20049;-69
2022/06/24 08:54:42;;;;;;;10.60;6.85;;;;;;;;;;5086316;28;20092;-70
2022/06/24 08:57:08;;;;;;;8.95;6.93;;;;;;;;;;5100704;28;20451;-69
2022/06/24 08:59:34;;;;;;;10.98;7.78;;;;;;;;;;5083759;28;20024;-69
2022/06/24 09:02:00;;;;;;;12.32;6.78;;;;;;;;;;5084630;28;20024;-69
2022/06/24 09:04:26;;;;;;;10.02;6.20;;;;;;;;;;5088181;28;20028;-70
2022/06/24 09:06:52;;;;;;;9.27;6.60;;;;;;;;;;5088181;28;20021;-69
2022/06/24 09:09:28;;;;;;;9.98;6.95;;;;;;;;;;5088777;28;20357;-70
2022/06/24 09:11:57;;;;;;;11.45;7.05;;;;;;;;;;5089073;28;20024;-69
2022/06/24 09:14:23;;;;;;;9.43;6.93;;;;;;;;;;5082537;28;20036;-70
2022/06/24 09:16:49;;;;;;;14.80;7.25;;;;;;;;;;5068349;28;20382;-69
2022/06/24 09:19:16;;;;;;;10.10;6.78;;;;;;;;;;5068237;28;20032;-69
2022/06/24 09:21:43;;;;;;;9.75;7.18;;;;;;;;;;5068481;28;20091;-70
2022/06/24 09:24:10;;;;;;;11.10;7.05;;;;;;;;;;5076536;28;20095;-69
2022/06/24 09:26:41;;;;;;;11.05;7.03;;;;;;;;;;5076036;28;20017;-68
2022/06/24 09:29:11;;;;;;;9.70;7.57;;;;;;;;;;5081978;28;20123;-68
2022/06/24 09:31:39;;;;;;;10.95;7.30;;;;;;;;;;5087901;28;20564;-68
2022/06/24 09:34:13;;;;;;;10.95;6.88;;;;;;;;;;5087551;28;20079;-68
2022/06/24 09:36:40;;;;;;;10.48;7.75;;;;;;;;;;5087284;28;20028;-68
2022/06/24 09:39:09;;;;;;;10.25;8.13;;;;;;;;;;5088257;28;20853;-68
2022/06/24 09:41:44;;;;;;;11.43;8.05;;;;;;;;;;5088763;28;20028;-68
2022/06/24 09:44:11;;;;;;;9.85;7.20;;;;;;;;;;5085079;28;20055;-68
2022/06/24 09:46:37;;;;;;;9.93;7.10;;;;;;;;;;5073149;28;20082;-68
2022/06/24 09:49:05;;;;;;;11.20;7.50;;;;;;;;;;5074910;28;20044;-68
2022/06/24 09:51:31;;;;;;;10.57;7.03;;;;;;;;;;5073781;28;20521;-68
2022/06/24 09:53:58;;;;;;;12.93;7.43;;;;;;;;;;5074238;28;20044;-68
2022/06/24 09:56:24;;;;;;;9.43;6.97;;;;;;;;;;5072421;28;20017;-68
2022/06/24 10:01:40;;;;;;;8.98;6.78;;;;;;;;;;5054419;28;20080;-67
2022/06/24 10:04:08;;;;;;;9.23;6.57;;;;;;;;;;5054726;28;20028;-66
2022/06/24 10:06:36;;;;;;;10.18;6.95;;;;;;;;;;5066261;28;20104;-66
2022/06/24 10:09:05;;;;;;;8.95;6.70;;;;;;;;;;5074491;28;20112;-68
2022/06/24 10:11:35;;;;;;;8.50;6.72;;;;;;;;;;5090532;28;20020;-68
2022/06/24 10:14:02;;;;;;;9.05;6.25;;;;;;;;;;5073014;28;20466;-69
2022/06/24 10:16:28;;;;;;;9.93;6.47;;;;;;;;;;5072112;28;20028;-69
2022/06/24 10:18:55;;;;;;;10.65;6.00;;;;;;;;;;5074537;28;20095;-67
2022/06/24 10:21:22;;;;;;;8.77;5.95;;;;;;;;;;5070694;28;20457;-67
2022/06/24 10:23:48;;;;;;;7.85;5.22;;;;;;;;;;5074470;28;20401;-69
2022/06/24 10:26:34;;;;;;;8.60;6.07;;;;;;;;;;5078579;28;20020;-70
2022/06/24 10:29:00;;;;;;;9.32;5.85;;;;;;;;;;5073466;28;20040;-69
2022/06/24 10:31:45;;;;;;;10.02;6.00;;;;;;;;;;5074376;28;20050;-69
2022/06/24 10:34:12;;;;;;;10.63;5.32;;;;;;;;;;5086924;28;20068;-68
2022/06/24 10:36:38;;;;;;;6.97;4.60;;;;;;;;;;5068693;28;20485;-69
2022/06/24 10:39:10;;;;;;;7.95;4.43;;;;;;;;;;5073166;28;20032;-69
2022/06/24 10:41:37;;;;;;;8.23;4.63;;;;;;;;;;5072643;28;20020;-69
2022/06/24 10:44:22;;;;;;;7.65;5.55;;;;;;;;;;5071855;28;20438;-69
2022/06/24 10:46:48;;;;;;;7.80;4.40;;;;;;;;;;5073271;28;20052;-70
2022/06/24 10:49:14;;;;;;;7.20;4.70;;;;;;;;;;5072605;28;20112;-71
2022/06/24 10:51:40;;;;;;;8.50;4.65;;;;;;;;;;5070085;28;20056;-71
2022/06/24 10:54:06;;;;;;;6.22;3.70;;;;;;;;;;5070079;28;20646;-68
2022/06/24 10:56:49;;;;;;;8.23;4.35;;;;;;;;;;5054782;28;20025;-71
2022/06/24 10:59:18;;;;;;;9.13;4.90;;;;;;;;;;5062022;28;20032;-70
2022/06/24 11:01:45;;;;;;;6.97;4.55;;;;;;;;;;5069479;28;20066;-70
2022/06/24 11:04:31;;;;;;;8.50;4.35;;;;;;;;;;5069747;28;20104;-71
2022/06/24 11:07:11;;;;;;;8.00;4.88;;;;;;;;;;5071738;28;20078;-71
2022/06/24 11:09:37;;;;;;;6.65;3.75;;;;;;;;;;5072194;28;20071;-71
2022/06/24 11:12:05;;;;;;;6.63;4.03;;;;;;;;;;5072742;28;20514;-71
2022/06/24 11:14:31;;;;;;;8.98;4.93;;;;;;;;;;5072129;28;20119;-71
2022/06/24 11:16:57;;;;;;;10.02;5.72;;;;;;;;;;5071665;28;20488;-71
2022/06/24 11:19:23;;;;;;;8.20;5.68;;;;;;;;;;5072120;28;20032;-72
2022/06/24 11:21:50;;;;;;;10.13;6.85;;;;;;;;;;5072212;28;20020;-71
2022/06/24 11:24:20;;;;;;;6.00;3.70;;;;;;;;;;5072097;28;20067;-71
2022/06/24 11:27:04;;;;;;;7.90;4.55;;;;;;;;;;5073304;28;20351;-71
2022/06/24 11:29:49;;;;;;;6.25;3.95;;;;;;;;;;5074002;28;20076;-71
2022/06/24 11:32:16;;;;;;;5.70;3.85;;;;;;;;;;5073856;28;20031;-71
2022/06/24 11:34:43;;;;;;;8.85;3.63;;;;;;;;;;5073737;28;20045;-70
2022/06/24 11:37:10;;;;;;;6.45;3.97;;;;;;;;;;5070619;28;20024;-69
2022/06/24 11:39:36;;;;;;;6.88;3.92;;;;;;;;;;5073887;28;20024;-70
2022/06/24 11:42:02;;;;;;;7.85;3.88;;;;;;;;;;5073906;28;20055;-70
2022/06/24 11:44:33;;;;;;;6.25;4.15;;;;;;;;;;5073434;28;20021;-71
2022/06/24 11:46:59;;;;;;;6.93;4.15;;;;;;;;;;5073565;28;20020;-70
2022/06/24 11:49:27;;;;;;;5.25;3.28;;;;;;;;;;5073881;28;20066;-71
2022/06/24 11:51:53;;;;;;;3.97;2.60;;;;;;;;;;5073254;28;20020;-71
2022/06/24 11:54:19;;;;;;;7.93;3.38;;;;;;;;;;5072246;28;20036;-70
2022/06/24 11:56:45;;;;;;;5.18;3.00;;;;;;;;;;5073508;28;20016;-70
2022/06/24 11:59:12;;;;;;;8.98;3.30;;;;;;;;;;5071742;28;20025;-68
2022/06/24 12:01:38;;;;;;;5.43;3.25;;;;;;;;;;5073353;28;20020;-68
2022/06/24 12:04:09;;;;;;;5.43;2.63;;;;;;;;;;5073294;28;20029;-69
2022/06/24 12:06:37;;;;;;;5.93;2.75;;;;;;;;;;5073175;28;20017;-68
2022/06/24 12:09:03;;;;;;;3.65;2.60;;;;;;;;;;5072945;28;20028;-69
2022/06/24 12:11:30;;;;;;;5.88;2.80;;;;;;;;;;5069289;28;20078;-69
2022/06/24 12:14:03;;;;;;;3.88;2.17;;;;;;;;;;5062374;28;20144;-69
2022/06/24 12:16:30;;;;;;;3.45;2.10;;;;;;;;;;5073634;28;20110;-69
2022/06/24 12:18:56;;;;;;;3.95;2.10;;;;;;;;;;5073197;28;20095;-70
2022/06/24 12:21:26;;;;;;;4.65;2.70;;;;;;;;;;5073021;28;20092;-70
2022/06/24 12:23:52;;;;;;;5.70;2.08;;;;;;;;;;5073251;28;20029;-69
2022/06/24 12:26:20;;;;;;;3.67;1.80;;;;;;;;;;5072993;28;20721;-69
2022/06/24 12:28:57;;;;;;;3.70;2.00;;;;;;;;;;5073224;28;20021;-70
2022/06/24 12:31:23;;;;;;;4.00;2.60;;;;;;;;;;5073282;28;20021;-70
2022/06/24 12:33:56;;;;;;;5.32;3.10;;;;;;;;;;5072515;28;20049;-70
2022/06/24 12:36:35;;;;;;;4.05;2.63;;;;;;;;;;5073089;28;20047;-69
2022/06/24 12:39:03;;;;;;;4.00;2.50;;;;;;;;;;5071735;28;20074;-69
2022/06/24 12:41:30;;;;;;;4.65;2.90;;;;;;;;;;5072639;28;20025;-70
2022/06/24 12:43:57;;;;;;;4.47;2.70;;;;;;;;;;5068097;28;20469;-70
2022/06/24 12:46:25;;;;;;;6.43;3.30;;;;;;;;;;5072704;28;20429;-70
2022/06/24 12:51:43;;;;;;;5.07;2.47;;;;;;;;;;5068049;28;20075;-69
2022/06/24 12:54:09;;;;;;;5.93;2.55;;;;;;;;;;5067816;28;20048;-69
2022/06/24 12:56:36;;;;;;;4.30;2.67;;;;;;;;;;5072768;28;20024;-69
2022/06/24 12:59:02;;;;;;;7.07;2.42;;;;;;;;;;5072666;28;20416;-68
2022/06/24 13:01:30;;;;;;;3.10;2.17;;;;;;;;;;5072292;28;20024;-71
2022/06/24 13:03:56;;;;;;;3.72;2.33;;;;;;;;;;5070733;28;20029;-72
2022/06/24 13:06:22;;;;;;;9.63;3.20;;;;;;;;;;5070785;28;20426;-72
2022/06/24 13:08:49;;;;;;;5.05;2.88;;;;;;;;;;5070334;28;20396;-72
2022/06/24 13:11:15;;;;;;;5.00;2.20;;;;;;;;;;5070670;28;20047;-72
2022/06/24 13:13:41;;;;;;;2.63;1.90;;;;;;;;;;5070617;28;20036;-72
2022/06/24 13:16:07;;;;;;;2.55;1.80;;;;;;;;;;5070259;28;20032;-72
2022/06/24 13:18:33;;;;;;;3.33;1.98;;;;;;;;;;5070924;28;20020;-72
2022/06/24 13:21:00;;;;;;;3.78;2.17;;;;;;;;;;5073164;28;20091;-72
2022/06/24 13:23:26;;;;;;;2.65;1.90;;;;;;;;;;5074226;28;20020;-72
2022/06/24 13:25:52;;;;;;;5.70;2.40;;;;;;;;;;5074400;28;20086;-72
2022/06/24 13:28:18;;;;;;;3.75;2.30;;;;;;;;;;5074307;28;20030;-71
2022/06/24 13:30:46;;;;;;;3.60;2.10;;;;;;;;;;5074303;28;20527;-72
2022/06/24 13:33:12;;;;;;;3.83;2.28;;;;;;;;;;5076034;28;20047;-72
2022/06/24 13:35:39;;;;;;;2.50;1.75;;;;;;;;;;5075923;28;20031;-71
2022/06/24 13:38:05;;;;;;;4.25;2.33;;;;;;;;;;5075728;28;20012;-71
2022/06/24 13:40:31;;;;;;;5.50;2.50;;;;;;;;;;5076144;28;20025;-71
2022/06/24 13:42:58;;;;;;;4.32;2.78;;;;;;;;;;5075974;28;20078;-71
2022/06/24 13:45:25;;;;;;;6.90;2.80;;;;;;;;;;5075609;28;20028;-71
2022/06/24 13:47:51;;;;;;;5.47;2.70;;;;;;;;;;5076010;28;20031;-71
2022/06/24 13:50:17;;;;;;;6.53;3.30;;;;;;;;;;5075896;28;20035;-71
2022/06/24 13:52:43;;;;;;;5.07;2.78;;;;;;;;;;5075577;28;20017;-71
2022/06/24 13:55:09;;;;;;;2.88;1.92;;;;;;;;;;5075863;28;20025;-70
2022/06/24 13:57:36;;;;;;;3.70;2.22;;;;;;;;;;5075518;28;20021;-70
2022/06/24 14:00:03;;;;;;;4.07;2.70;;;;;;;;;;5075613;28;20074;-71
2022/06/24 14:02:29;;;;;;;4.47;2.97;;;;;;;;;;5075912;28;20423;-70
2022/06/24 14:04:56;;;;;;;5.22;2.60;;;;;;;;;;5075438;28;20020;-70
2022/06/24 14:07:22;;;;;;;3.45;2.33;;;;;;;;;;5075720;28;20432;-71
2022/06/24 14:09:49;;;;;;;4.45;2.30;;;;;;;;;;5075627;28;20531;-70
2022/06/24 14:12:15;;;;;;;6.10;2.75;;;;;;;;;;5075186;28;20392;-70
2022/06/24 14:14:41;;;;;;;3.60;2.67;;;;;;;;;;5075562;28;20120;-71
2022/06/24 14:17:10;;;;;;;3.45;2.50;;;;;;;;;;5075610;28;20052;-71
2022/06/24 14:19:36;;;;;;;3.65;2.53;;;;;;;;;;5075090;28;20024;-73
2022/06/24 14:22:02;;;;;;;4.00;2.58;;;;;;;;;;5075739;28;20115;-70
2022/06/24 14:24:32;;;;;;;5.18;3.03;;;;;;;;;;5075485;28;20478;-72
2022/06/24 14:27:01;;;;;;;5.03;2.25;;;;;;;;;;5074973;28;20385;-71
2022/06/24 14:29:27;;;;;;;4.60;2.97;;;;;;;;;;5075284;28;20469;-72
2022/06/24 14:31:54;;;;;;;5.47;3.05;;;;;;;;;;5075146;28;20461;-71
2022/06/24 14:34:20;;;;;;;6.78;3.13;;;;;;;;;;5074623;28;20052;-71
2022/06/24 14:36:46;;;;;;;5.90;2.90;;;;;;;;;;5075094;28;20028;-71
2022/06/24 14:41:57;;;;;;;4.85;2.78;;;;;;;;;;5075043;28;20034;-71
2022/06/24 14:44:23;;;;;;;4.82;2.67;;;;;;;;;;5075013;28;20028;-72
2022/06/24 14:46:49;;;;;;;4.53;3.03;;;;;;;;;;5074598;28;20021;-72
2022/06/24 14:49:16;;;;;;;5.38;2.85;;;;;;;;;;5074972;28;20031;-72
2022/06/24 14:51:42;;;;;;;4.53;2.50;;;;;;;;;;5075037;28;20070;-72
2022/06/24 14:54:08;;;;;;;6.20;3.00;;;;;;;;;;5074411;28;20461;-72
2022/06/24 14:56:34;;;;;;;4.70;2.90;;;;;;;;;;5074842;28;20028;-71
2022/06/24 14:59:00;;;;;;;4.47;2.83;;;;;;;;;;5074806;28;20047;-71
2022/06/24 15:01:26;;;;;;;3.75;2.60;;;;;;;;;;5074255;28;20024;-70
2022/06/24 15:03:52;;;;;;;5.85;2.90;;;;;;;;;;5074643;28;20468;-71
2022/06/24 15:06:19;;;;;;;5.43;2.85;;;;;;;;;;5074374;28;20038;-71
2022/06/24 15:08:45;;;;;;;3.63;2.22;;;;;;;;;;5072738;28;20056;-71
2022/06/24 15:11:11;;;;;;;3.10;2.28;;;;;;;;;;5074325;28;20078;-71
2022/06/24 15:13:37;;;;;;;3.90;2.10;;;;;;;;;;5074223;28;20031;-71
2022/06/24 15:16:03;;;;;;;5.18;2.45;;;;;;;;;;5072559;28;20107;-71
2022/06/24 15:18:29;;;;;;;5.70;2.97;;;;;;;;;;5073004;28;20048;-71
2022/06/24 15:20:55;;;;;;;7.97;3.13;;;;;;;;;;5074205;28;20029;-71
2022/06/24 15:23:22;;;;;;;3.35;2.30;;;;;;;;;;5073825;28;20031;-71
2022/06/24 15:25:48;;;;;;;11.38;9.13;;;;;;;;;;5074042;28;20030;-71
2022/06/24 15:28:14;;;;;;;6.25;3.88;;;;;;;;;;5074227;28;20048;-71
2022/06/24 15:30:40;;;;;;;7.88;4.10;;;;;;;;;;5072424;28;20074;-71
2022/06/24 15:33:06;;;;;;;7.68;4.10;;;;;;;;;;5073758;28;20049;-71
2022/06/24 15:35:33;;;;;;;7.57;3.63;;;;;;;;;;5074074;28;20477;-71
2022/06/24 15:37:59;;;;;;;6.13;3.20;;;;;;;;;;5073499;28;20024;-71
2022/06/24 15:40:25;;;;;;;6.78;3.88;;;;;;;;;;5073893;28;20021;-70
2022/06/24 15:42:51;;;;;;;5.88;2.80;;;;;;;;;;5073487;28;20488;-71
2022/06/24 15:45:17;;;;;;;6.10;2.70;;;;;;;;;;5073538;28;20540;-71
2022/06/24 15:47:44;;;;;;;2.95;2.03;;;;;;;;;;5073795;28;20020;-70
2022/06/24 15:50:10;;;;;;;3.45;2.10;;;;;;;;;;5073266;28;20025;-70
2022/06/24 15:52:36;;;;;;;3.90;2.20;;;;;;;;;;5073633;28;20028;-71
2022/06/24 15:55:02;;;;;;;12.98;2.40;;;;;;;;;;5073624;28;20039;-71
2022/06/24 15:57:28;;;;;;;3.67;1.90;;;;;;;;;;5073239;28;20056;-71
2022/06/24 15:59:54;;;;;;;6.30;2.13;;;;;;;;;;5073555;28;20028;-71
2022/06/24 16:02:21;;;;;;;4.40;2.00;;;;;;;;;;5073510;28;20491;-70
2022/06/24 16:04:47;;;;;;;3.67;2.42;;;;;;;;;;5073122;28;20477;-71
2022/06/24 16:07:13;;;;;;;3.67;2.28;;;;;;;;;;5073558;28;20558;-71
2022/06/24 16:09:39;;;;;;;3.63;2.10;;;;;;;;;;5073448;28;20058;-71
2022/06/24 16:14:50;;;;;;;4.68;2.65;;;;;;;;;;5073436;28;20400;-71
2022/06/24 16:17:17;;;;;;;3.13;1.92;;;;;;;;;;5072172;28;20095;-70
2022/06/24 16:19:43;;;;;;;4.55;2.50;;;;;;;;;;5072715;28;20020;-70
2022/06/24 16:22:09;;;;;;;4.90;2.20;;;;;;;;;;5073373;28;20024;-70
2022/06/24 16:28:40;;;;;;;4.18;2.33;;;;;;;;;;5073334;28;20023;-71
2022/06/24 16:30:06;;;;;;;4.07;2.13;;;;;;;;;;5073257;28;20061;-71
2022/06/24 16:32:32;;;;;;;4.72;2.20;;;;;;;;;;5073034;28;20388;-70
2022/06/24 16:34:58;;;;;;;4.45;1.90;;;;;;;;;;5073173;28;20055;-71
2022/06/24 16:37:25;;;;;;;2.55;1.67;;;;;;;;;;5073307;28;20056;-70
2022/06/24 16:39:51;;;;;;;2.60;1.83;;;;;;;;;;5072831;28;20052;-70
2022/06/24 16:42:17;;;;;;;4.38;2.35;;;;;;;;;;5073154;28;20102;-70
2022/06/24 16:44:43;;;;;;;7.65;2.50;;;;;;;;;;5073062;28;20473;-70
2022/06/24 16:47:09;;;;;;;3.75;2.42;;;;;;;;;;5072620;28;20036;-69
2022/06/24 16:49:35;;;;;;;3.42;2.08;;;;;;;;;;5073043;28;20031;-70
2022/06/24 16:52:01;;;;;;;4.03;2.03;;;;;;;;;;5073062;28;20025;-70
2022/06/24 16:54:27;;;;;;;3.47;1.90;;;;;;;;;;5072602;28;20044;-70
2022/06/24 16:56:54;;;;;;;3.58;1.80;;;;;;;;;;5075637;28;20419;-70
2022/06/24 16:59:20;;;;;;;6.65;2.08;;;;;;;;;;5076815;28;20532;-69